Time;durP1;ratioP1;P1;durP2;ratioP2;P2;SDS_P1;SDS_P2;PMS_P1;PMS_P2;Temp;Humidity;BMP_temperature;BMP_pressure;BME280_temperature;BME280_humidity;BME280_pressure;Samples;Min_cycle;Max_cycle;Signal;HPM_P1;HPM_P2
2022/07/18 03:04:06;;;;;;;5.57;2.72;;;15.60;99.90;;;;;;6306899;22;20019;-95
2022/07/18 12:45:24;;;;;;;4.15;1.60;;;29.10;62.70;;;;;;6310552;22;20035;-93
2022/07/18 14:17:54;;;;;;;4.25;1.60;;;28.60;57.60;;;;;;6302808;22;20019;-91
2022/07/18 14:20:21;;;;;;;4.03;1.60;;;28.50;58.70;;;;;;6256415;22;20023;-92
2022/07/18 14:22:47;;;;;;;4.00;1.63;;;28.50;58.70;;;;;;6257272;22;20011;-90
2022/07/18 14:25:16;;;;;;;4.35;1.65;;;28.40;58.60;;;;;;6257007;22;20015;-91
2022/07/18 14:27:43;;;;;;;4.60;1.60;;;28.40;58.70;;;;;;6256812;22;20019;-93
2022/07/18 14:30:12;;;;;;;3.55;1.70;;;28.40;59.40;;;;;;6256290;22;20390;-92
2022/07/18 14:32:38;;;;;;;4.63;1.55;;;28.40;59.90;;;;;;6256364;22;20023;-91
2022/07/18 14:35:06;;;;;;;4.45;1.67;;;28.40;59.70;;;;;;6256274;22;20076;-90
2022/07/18 14:41:05;;;;;;;3.38;1.42;;;28.50;59.00;;;;;;6243938;22;20026;-94
2022/07/18 14:43:41;;;;;;;3.75;1.35;;;28.60;59.50;;;;;;6256820;22;20022;-93
2022/07/18 14:46:11;;;;;;;4.43;1.50;;;28.60;58.80;;;;;;6282260;22;20015;-93
2022/07/18 14:48:43;;;;;;;4.13;1.50;;;28.70;59.20;;;;;;6257058;22;20432;-92
2022/07/18 14:51:11;;;;;;;2.95;1.40;;;28.70;59.00;;;;;;6256430;22;20019;-91
2022/07/18 14:53:37;;;;;;;2.83;1.40;;;28.70;59.00;;;;;;6255322;22;20019;-91
2022/07/18 14:56:28;;;;;;;3.15;1.13;;;28.70;59.10;;;;;;6256384;22;20058;-92
2022/07/18 14:58:54;;;;;;;3.15;1.30;;;28.60;58.10;;;;;;6256389;22;20318;-91
2022/07/18 15:01:25;;;;;;;4.25;1.98;;;28.60;58.50;;;;;;6257288;22;20027;-92
2022/07/18 15:03:53;;;;;;;3.08;1.33;;;28.50;58.30;;;;;;6255737;22;20018;-91
2022/07/18 15:06:19;;;;;;;3.75;1.63;;;28.50;58.70;;;;;;6256165;22;20019;-93
2022/07/18 15:08:46;;;;;;;3.45;1.55;;;28.40;59.40;;;;;;6256221;22;20011;-92
2022/07/18 15:12:00;;;;;;;4.53;2.05;;;28.40;59.40;;;;;;6256299;22;20038;-93
2022/07/18 15:14:27;;;;;;;3.97;1.52;;;28.30;58.70;;;;;;6261844;22;20015;-93
2022/07/18 15:16:53;;;;;;;3.65;1.48;;;28.20;59.60;;;;;;6256324;22;20061;-91
2022/07/18 15:19:19;;;;;;;4.15;1.23;;;28.20;59.90;;;;;;6256458;22;20057;-90
2022/07/18 15:21:45;;;;;;;3.92;1.58;;;28.20;60.20;;;;;;6256203;22;20027;-91
2022/07/18 15:24:10;;;;;;;3.28;1.60;;;28.10;60.50;;;;;;6255726;22;20019;-91
2022/07/18 15:26:36;;;;;;;3.47;1.60;;;28.10;60.50;;;;;;6255902;22;20042;-90
2022/07/18 15:29:07;;;;;;;4.28;1.30;;;28.10;60.70;;;;;;6281453;22;20325;-92
2022/07/18 15:31:35;;;;;;;3.45;1.45;;;28.00;60.80;;;;;;6256222;22;20033;-94
2022/07/18 15:34:01;;;;;;;2.60;1.20;;;28.10;61.10;;;;;;6281553;22;20015;-90
2022/07/18 15:36:27;;;;;;;3.20;1.23;;;28.00;60.90;;;;;;6256121;22;20091;-94
2022/07/18 15:38:53;;;;;;;3.53;1.40;;;28.10;61.10;;;;;;6256377;22;20111;-90
2022/07/18 15:41:19;;;;;;;3.05;1.42;;;28.10;62.00;;;;;;6255607;22;20015;-92
2022/07/18 18:09:48;;;;;;;3.72;1.08;;;26.30;73.90;;;;;;6305417;22;20027;-92
2022/07/18 18:12:14;;;;;;;2.70;0.93;;;26.30;74.20;;;;;;6256683;22;20070;-91
2022/07/18 18:14:40;;;;;;;3.85;1.40;;;26.30;74.40;;;;;;6256732;22;20121;-93
2022/07/18 18:17:05;;;;;;;3.13;1.30;;;26.20;74.40;;;;;;6257227;22;20011;-94
2022/07/18 18:20:54;;;;;;;3.78;1.30;;;26.20;74.70;;;;;;6256968;22;20069;-92
